Time;durP1;ratioP1;P1;durP2;ratioP2;P2;SDS_P1;SDS_P2;PMS_P1;PMS_P2;Temp;Humidity;BMP_temperature;BMP_pressure;BME280_temperature;BME280_humidity;BME280_pressure;Samples;Min_cycle;Max_cycle;Signal;HPM_P1;HPM_P2
2022/12/01 00:02:08;;;;;;;26.60;24.13;;;6.00;99.90;;;;;;4992796;28;20462;-73
2022/12/01 00:04:34;;;;;;;28.77;25.37;;;6.00;99.90;;;;;;4992685;28;20547;-73
2022/12/01 00:07:01;;;;;;;25.97;23.43;;;6.10;99.90;;;;;;4992544;28;20466;-75
2022/12/01 00:12:13;;;;;;;27.40;24.60;;;6.10;99.90;;;;;;4992411;28;20438;-72
2022/12/01 00:14:40;;;;;;;25.37;22.97;;;6.10;99.90;;;;;;4992367;28;20538;-71
2022/12/01 00:17:07;;;;;;;27.80;25.03;;;6.10;99.90;;;;;;4992659;28;20452;-71
2022/12/01 00:19:34;;;;;;;27.27;24.67;;;5.90;99.90;;;;;;4991893;28;20489;-73
2022/12/01 00:22:00;;;;;;;26.73;23.97;;;5.80;99.90;;;;;;4992213;28;20449;-72
2022/12/01 00:24:28;;;;;;;29.27;26.10;;;5.80;99.90;;;;;;4992168;28;20450;-72
2022/12/01 00:26:55;;;;;;;28.13;25.23;;;5.80;99.90;;;;;;5011922;28;20449;-72
2022/12/01 00:29:22;;;;;;;30.27;27.03;;;5.70;99.90;;;;;;5011923;28;20815;-71
2022/12/01 00:31:49;;;;;;;28.00;25.30;;;5.70;99.90;;;;;;5011634;28;20449;-71
2022/12/01 00:34:22;;;;;;;28.73;25.90;;;5.60;99.90;;;;;;5011575;28;20923;-71
2022/12/01 00:36:49;;;;;;;29.37;26.47;;;5.60;99.90;;;;;;5011744;28;20479;-73
2022/12/01 00:39:16;;;;;;;30.10;26.90;;;5.50;99.90;;;;;;5011638;28;20498;-72
2022/12/01 00:41:44;;;;;;;28.83;25.90;;;5.30;99.90;;;;;;5011404;28;20453;-72
2022/12/01 00:44:11;;;;;;;29.93;26.70;;;5.20;99.90;;;;;;5011475;28;20818;-72
2022/12/01 00:46:38;;;;;;;28.07;25.10;;;5.20;99.90;;;;;;5010734;28;20461;-72
2022/12/01 00:49:05;;;;;;;27.57;25.00;;;5.20;99.90;;;;;;5011422;28;20500;-72
2022/12/01 00:51:32;;;;;;;30.27;27.47;;;5.30;99.90;;;;;;5011220;28;20478;-72
2022/12/01 00:53:58;;;;;;;28.37;25.27;;;5.30;99.90;;;;;;5011295;28;21023;-72
2022/12/01 00:56:25;;;;;;;27.50;23.70;;;5.20;99.90;;;;;;5011568;28;20452;-72
2022/12/01 00:58:53;;;;;;;28.40;25.43;;;5.20;99.90;;;;;;5011774;28;20488;-73
2022/12/01 01:01:20;;;;;;;26.50;23.90;;;5.10;99.90;;;;;;5011399;28;20954;-74
2022/12/01 01:03:47;;;;;;;28.07;25.30;;;5.10;99.90;;;;;;5011031;28;20840;-74
2022/12/01 01:06:14;;;;;;;28.83;25.90;;;5.10;99.90;;;;;;5011116;28;20449;-73
2022/12/01 01:08:41;;;;;;;25.13;22.70;;;5.10;99.90;;;;;;5011051;28;20446;-73
2022/12/01 01:11:09;;;;;;;27.60;24.83;;;5.00;99.90;;;;;;5011427;28;20450;-73
2022/12/01 01:13:37;;;;;;;28.33;25.40;;;5.10;99.90;;;;;;5011177;28;20450;-73
2022/12/01 01:16:07;;;;;;;27.30;24.53;;;5.10;99.90;;;;;;5011093;28;20460;-74
2022/12/01 01:18:34;;;;;;;26.27;23.47;;;5.00;99.90;;;;;;5010943;28;20840;-73
2022/12/01 01:21:04;;;;;;;26.63;24.00;;;5.00;99.90;;;;;;5010825;28;20453;-74
2022/12/01 01:23:31;;;;;;;27.10;24.47;;;5.10;99.90;;;;;;5010694;28;20658;-73
2022/12/01 01:26:02;;;;;;;26.37;23.63;;;5.00;99.90;;;;;;5010764;28;20828;-73
2022/12/01 01:28:29;;;;;;;29.50;23.90;;;5.00;99.90;;;;;;5010600;28;20520;-74
2022/12/01 01:30:56;;;;;;;26.13;23.53;;;5.00;99.90;;;;;;5010761;28;20453;-74
2022/12/01 01:33:24;;;;;;;25.77;22.80;;;5.10;99.90;;;;;;5011098;28;20461;-73
2022/12/01 01:35:51;;;;;;;27.17;24.47;;;5.10;99.90;;;;;;5010754;28;20450;-73
2022/12/01 01:38:18;;;;;;;28.13;25.13;;;5.10;99.90;;;;;;5010306;28;20482;-73
2022/12/01 01:40:45;;;;;;;26.20;23.70;;;5.10;99.90;;;;;;5010354;28;20452;-72
2022/12/01 01:43:15;;;;;;;26.90;24.13;;;5.10;99.90;;;;;;5010459;28;20463;-73
2022/12/01 01:45:42;;;;;;;26.93;24.03;;;5.00;99.90;;;;;;5010420;28;20457;-72
2022/12/01 01:48:10;;;;;;;28.53;25.47;;;5.10;99.90;;;;;;5010601;28;20448;-73
2022/12/01 01:50:38;;;;;;;28.20;25.43;;;5.10;99.90;;;;;;5010212;28;20494;-73
2022/12/01 01:53:08;;;;;;;27.90;24.90;;;5.10;99.90;;;;;;5010117;28;21071;-72
2022/12/01 01:55:36;;;;;;;28.13;25.43;;;5.10;99.90;;;;;;5010199;28;20453;-72
2022/12/01 01:58:08;;;;;;;27.90;25.10;;;5.10;99.90;;;;;;5009676;28;20544;-72
2022/12/01 02:00:37;;;;;;;26.87;24.20;;;5.20;99.90;;;;;;5009993;28;20452;-72
2022/12/01 02:03:04;;;;;;;34.07;26.17;;;5.20;99.90;;;;;;5010040;28;20961;-73
2022/12/01 02:05:33;;;;;;;25.73;23.23;;;5.20;99.90;;;;;;5010182;28;20460;-74
2022/12/01 02:08:03;;;;;;;30.33;27.03;;;5.20;99.90;;;;;;5009714;28;20468;-73
2022/12/01 02:10:44;;;;;;;25.83;23.17;;;5.30;99.90;;;;;;5009740;28;20450;-73
2022/12/01 02:13:20;;;;;;;27.50;25.03;;;5.30;99.90;;;;;;5009867;28;20541;-73
2022/12/01 02:15:56;;;;;;;29.13;25.27;;;5.30;99.90;;;;;;5010101;28;20646;-73
2022/12/01 02:18:30;;;;;;;27.60;24.93;;;5.40;99.90;;;;;;5010150;28;20484;-73
2022/12/01 02:21:22;;;;;;;27.00;24.43;;;5.40;99.90;;;;;;5009859;28;20449;-73
2022/12/01 02:24:08;;;;;;;27.30;24.23;;;5.40;99.90;;;;;;5009876;28;20467;-73
2022/12/01 02:26:45;;;;;;;28.37;25.57;;;5.30;99.90;;;;;;5009747;28;20453;-71
2022/12/01 02:29:42;;;;;;;28.50;25.70;;;5.20;99.90;;;;;;5009566;28;20788;-72
2022/12/01 02:32:16;;;;;;;25.90;23.40;;;5.20;99.90;;;;;;4985062;28;20474;-72
2022/12/01 02:34:49;;;;;;;28.30;25.40;;;5.20;99.90;;;;;;5009373;28;20449;-73
2022/12/01 02:37:25;;;;;;;27.93;25.33;;;5.20;99.90;;;;;;5009298;28;20449;-72
2022/12/01 02:39:58;;;;;;;28.03;24.70;;;5.10;99.90;;;;;;5009508;28;20509;-73
2022/12/01 02:42:52;;;;;;;28.13;25.20;;;5.00;99.90;;;;;;5009438;28;20446;-73
2022/12/01 02:45:28;;;;;;;29.67;26.77;;;5.00;99.90;;;;;;5009296;28;20454;-73
2022/12/01 02:48:00;;;;;;;29.27;26.27;;;5.10;99.90;;;;;;5009771;28;20446;-73
2022/12/01 02:50:28;;;;;;;31.50;28.40;;;5.10;99.90;;;;;;5009092;28;20484;-72
2022/12/01 02:52:55;;;;;;;28.03;25.13;;;5.10;99.90;;;;;;5009618;28;20460;-72
2022/12/01 02:55:22;;;;;;;28.20;25.40;;;5.00;99.90;;;;;;5009355;28;20446;-72
2022/12/01 02:57:48;;;;;;;30.90;26.60;;;5.00;99.90;;;;;;5009161;28;20815;-71
2022/12/01 03:00:17;;;;;;;29.40;26.30;;;5.00;99.90;;;;;;5009008;28;20876;-73
2022/12/01 03:02:59;;;;;;;34.30;27.30;;;4.90;99.90;;;;;;5009052;28;20955;-73
2022/12/01 03:05:31;;;;;;;30.27;27.13;;;4.90;99.90;;;;;;5009324;28;20474;-73
2022/12/01 03:08:12;;;;;;;30.87;27.43;;;4.90;99.90;;;;;;5008845;28;20457;-73
2022/12/01 03:10:48;;;;;;;27.37;24.73;;;4.90;99.90;;;;;;5009176;28;20546;-73
2022/12/01 03:13:24;;;;;;;29.60;26.60;;;4.90;99.90;;;;;;5008996;28;20445;-73
2022/12/01 03:15:58;;;;;;;29.00;26.33;;;4.80;99.90;;;;;;5013025;28;20449;-72
2022/12/01 03:18:36;;;;;;;29.73;26.57;;;4.80;99.90;;;;;;5015854;28;20460;-72
2022/12/01 03:21:08;;;;;;;32.33;29.07;;;4.80;99.90;;;;;;5011083;28;20539;-73
2022/12/01 03:23:39;;;;;;;30.50;27.30;;;4.70;99.90;;;;;;5010217;28;20452;-73
2022/12/01 03:26:09;;;;;;;30.10;27.00;;;4.70;99.90;;;;;;5009478;28;20541;-73
2022/12/01 03:28:42;;;;;;;29.17;26.07;;;4.70;99.90;;;;;;5009270;28;20458;-73
2022/12/01 03:31:15;;;;;;;28.30;25.70;;;4.70;99.90;;;;;;5009377;28;20520;-72
2022/12/01 03:33:49;;;;;;;29.43;26.57;;;4.70;99.90;;;;;;5008949;28;20453;-73
2022/12/01 03:36:20;;;;;;;29.23;26.00;;;4.60;99.90;;;;;;5009010;28;20599;-73
2022/12/01 03:38:52;;;;;;;29.03;26.13;;;4.70;99.90;;;;;;5008869;28;20481;-73
2022/12/01 03:41:24;;;;;;;32.03;27.00;;;4.70;99.90;;;;;;5008730;28;20507;-73
2022/12/01 03:43:57;;;;;;;29.73;26.63;;;4.70;99.90;;;;;;5008790;28;20938;-73
2022/12/01 03:46:32;;;;;;;28.40;25.37;;;4.70;99.90;;;;;;5008895;28;20450;-74
2022/12/01 03:49:02;;;;;;;29.33;26.33;;;4.70;99.90;;;;;;5008734;28;20495;-74
2022/12/01 03:51:37;;;;;;;31.40;28.07;;;4.70;99.90;;;;;;5008621;28;20484;-74
2022/12/01 03:54:11;;;;;;;29.40;26.03;;;4.70;99.90;;;;;;5008780;28;20464;-74
2022/12/01 03:56:44;;;;;;;27.83;24.90;;;4.70;99.90;;;;;;5008826;28;20560;-73
2022/12/01 03:59:12;;;;;;;29.33;26.20;;;4.60;99.90;;;;;;5008763;28;20486;-73
2022/12/01 04:01:38;;;;;;;31.40;28.20;;;4.70;99.90;;;;;;5008791;28;20459;-74
2022/12/01 04:04:11;;;;;;;27.03;24.30;;;4.60;99.90;;;;;;5008961;28;20465;-71
2022/12/01 04:06:39;;;;;;;29.20;26.30;;;4.60;99.90;;;;;;5008779;28;20971;-73
2022/12/01 04:09:06;;;;;;;29.30;24.30;;;4.60;99.90;;;;;;5008831;28;20933;-73
2022/12/01 04:14:17;;;;;;;27.23;24.53;;;4.50;99.90;;;;;;5008989;28;20996;-74
2022/12/01 04:16:44;;;;;;;28.60;25.73;;;4.50;99.90;;;;;;5009103;28;20718;-71
2022/12/01 04:19:12;;;;;;;32.47;28.30;;;4.50;99.90;;;;;;5008737;28;20486;-74
2022/12/01 04:21:39;;;;;;;29.80;26.03;;;4.50;99.90;;;;;;5010977;28;20467;-73
2022/12/01 04:24:06;;;;;;;31.80;28.47;;;4.60;99.90;;;;;;5011986;28;20451;-74
2022/12/01 04:26:35;;;;;;;30.07;27.07;;;4.60;99.90;;;;;;5011917;28;20452;-73
2022/12/01 04:29:04;;;;;;;29.83;26.90;;;4.60;99.90;;;;;;5011882;28;20493;-72
2022/12/01 04:31:31;;;;;;;30.77;27.53;;;4.70;99.90;;;;;;5011722;28;20457;-72
2022/12/01 04:33:58;;;;;;;29.30;26.47;;;4.70;99.90;;;;;;5011783;28;20456;-72
2022/12/01 04:36:29;;;;;;;27.47;24.77;;;4.70;99.90;;;;;;5011857;28;20821;-72
2022/12/01 04:38:56;;;;;;;34.07;27.20;;;4.70;99.90;;;;;;5011650;28;20487;-72
2022/12/01 04:41:23;;;;;;;30.33;27.23;;;4.70;99.90;;;;;;5011855;28;20459;-73
2022/12/01 04:43:52;;;;;;;27.47;24.67;;;4.70;99.90;;;;;;5011544;28;20812;-74
2022/12/01 04:46:19;;;;;;;29.03;25.97;;;4.70;99.90;;;;;;5011365;28;20451;-71
2022/12/01 04:48:46;;;;;;;29.90;26.83;;;4.70;99.90;;;;;;5011317;28;20450;-73
2022/12/01 04:51:12;;;;;;;28.50;25.10;;;4.70;99.90;;;;;;5011114;28;20489;-71
2022/12/01 04:53:40;;;;;;;29.70;26.60;;;4.70;99.90;;;;;;5011632;28;20451;-74
2022/12/01 04:56:07;;;;;;;29.40;26.40;;;4.60;99.90;;;;;;5011544;28;20470;-72
2022/12/01 04:58:36;;;;;;;28.60;25.60;;;4.60;99.90;;;;;;5011072;28;20445;-73
2022/12/01 05:01:05;;;;;;;31.07;28.00;;;4.70;99.90;;;;;;5011410;28;20546;-73
2022/12/01 05:03:35;;;;;;;31.30;28.30;;;4.80;99.90;;;;;;5011041;28;20455;-75
2022/12/01 05:06:02;;;;;;;30.27;27.37;;;4.70;99.90;;;;;;5011252;28;20457;-71
2022/12/01 05:08:29;;;;;;;30.03;26.90;;;4.70;99.90;;;;;;5010959;28;20453;-71
2022/12/01 05:10:57;;;;;;;31.50;27.30;;;4.90;99.90;;;;;;5011233;28;20449;-71
2022/12/01 05:13:24;;;;;;;30.17;26.87;;;4.90;99.90;;;;;;5010992;28;20457;-74
2022/12/01 05:15:51;;;;;;;31.77;27.23;;;4.90;99.90;;;;;;5011134;28;20935;-72
2022/12/01 05:18:18;;;;;;;29.57;26.47;;;4.80;99.90;;;;;;5010857;28;20455;-71
2022/12/01 05:20:56;;;;;;;30.57;26.30;;;4.70;99.90;;;;;;5010549;28;20491;-74
2022/12/01 05:23:23;;;;;;;31.00;27.60;;;4.70;99.90;;;;;;5011050;28;20535;-74
2022/12/01 05:25:50;;;;;;;35.27;28.33;;;4.70;99.90;;;;;;5010720;28;20542;-73
2022/12/01 05:28:18;;;;;;;30.73;27.43;;;4.70;99.90;;;;;;5010446;28;20850;-74
2022/12/01 05:30:45;;;;;;;30.13;27.00;;;4.70;99.90;;;;;;5010510;28;20808;-73
2022/12/01 05:33:12;;;;;;;30.27;27.00;;;4.70;99.90;;;;;;5010105;28;20459;-73
2022/12/01 05:35:39;;;;;;;28.80;26.13;;;4.70;99.90;;;;;;5010777;28;20465;-73
2022/12/01 05:38:06;;;;;;;32.23;28.87;;;4.60;99.90;;;;;;5010598;28;20452;-72
2022/12/01 05:40:33;;;;;;;29.43;26.33;;;4.60;99.90;;;;;;5010268;28;20488;-71
2022/12/01 05:43:00;;;;;;;31.50;28.20;;;4.60;99.90;;;;;;5010277;28;20471;-70
2022/12/01 05:45:28;;;;;;;38.23;31.70;;;4.60;99.90;;;;;;5011275;28;20447;-73
2022/12/01 05:47:55;;;;;;;37.60;33.37;;;4.60;99.90;;;;;;5010536;28;20809;-71
2022/12/01 05:50:23;;;;;;;31.57;28.20;;;4.60;99.90;;;;;;5010407;28;20484;-72
2022/12/01 05:52:49;;;;;;;31.50;27.87;;;4.60;99.90;;;;;;5010268;28;20536;-73
2022/12/01 05:55:16;;;;;;;30.67;27.33;;;4.60;99.90;;;;;;5010106;28;20982;-72
2022/12/01 05:57:44;;;;;;;32.77;29.27;;;4.60;99.90;;;;;;5010126;28;20460;-73
2022/12/01 06:00:12;;;;;;;33.20;29.73;;;4.60;99.90;;;;;;5010160;28;20480;-73
2022/12/01 06:02:41;;;;;;;32.80;28.43;;;4.60;99.90;;;;;;5010241;28;20521;-72
2022/12/01 06:05:09;;;;;;;34.50;29.50;;;4.60;99.90;;;;;;5010075;28;20449;-72
2022/12/01 06:07:35;;;;;;;32.17;27.70;;;4.60;99.90;;;;;;5010185;28;20838;-73
2022/12/01 06:10:03;;;;;;;40.60;29.80;;;4.60;99.90;;;;;;5009887;28;20450;-72
2022/12/01 06:12:29;;;;;;;33.90;29.57;;;4.60;99.90;;;;;;5009951;28;20458;-71
2022/12/01 06:14:56;;;;;;;34.50;27.53;;;4.60;99.90;;;;;;5010093;28;20453;-73
2022/12/01 06:17:23;;;;;;;33.30;28.73;;;4.60;99.90;;;;;;5011210;28;20467;-73
2022/12/01 06:19:51;;;;;;;33.57;29.47;;;4.60;99.90;;;;;;5010843;28;20478;-74
2022/12/01 06:22:18;;;;;;;32.33;28.90;;;4.70;99.90;;;;;;5015426;28;20463;-74
2022/12/01 06:24:44;;;;;;;34.40;28.67;;;4.60;99.90;;;;;;5014326;28;20705;-74
2022/12/01 06:27:11;;;;;;;34.07;30.47;;;4.60;99.90;;;;;;5011987;28;20448;-73
2022/12/01 06:29:38;;;;;;;36.50;29.13;;;4.60;99.90;;;;;;5011055;28;20449;-71
2022/12/01 06:32:05;;;;;;;32.80;29.20;;;4.50;99.90;;;;;;5010755;28;20883;-72
2022/12/01 06:34:32;;;;;;;34.30;28.63;;;4.60;99.90;;;;;;5010461;28;20449;-73
2022/12/01 06:37:00;;;;;;;34.53;29.17;;;4.60;99.90;;;;;;5010033;28;20461;-73
2022/12/01 06:39:27;;;;;;;35.30;31.43;;;4.50;99.90;;;;;;5009723;28;20461;-73
2022/12/01 06:41:53;;;;;;;39.80;31.33;;;4.60;99.90;;;;;;5010214;28;20456;-74
2022/12/01 06:44:20;;;;;;;40.33;29.47;;;4.60;99.90;;;;;;5009312;28;20450;-73
2022/12/01 06:46:51;;;;;;;34.37;29.87;;;4.70;99.90;;;;;;5010289;28;20469;-75
2022/12/01 06:49:19;;;;;;;33.70;30.10;;;4.70;99.90;;;;;;5010436;28;20878;-75
2022/12/01 06:51:45;;;;;;;35.50;29.67;;;4.60;99.90;;;;;;5010350;28;20479;-75
2022/12/01 06:54:14;;;;;;;37.67;30.47;;;4.70;99.90;;;;;;5010115;28;20539;-76
2022/12/01 06:56:41;;;;;;;37.13;30.03;;;4.70;99.90;;;;;;5009914;28;20500;-76
2022/12/01 06:59:08;;;;;;;34.33;30.80;;;4.70;99.90;;;;;;5010274;28;21586;-76
2022/12/01 07:01:35;;;;;;;32.27;26.90;;;4.70;99.90;;;;;;5011431;28;20492;-76
2022/12/01 07:04:02;;;;;;;36.53;30.17;;;4.70;99.90;;;;;;5010275;28;20547;-74
2022/12/01 07:06:30;;;;;;;36.07;28.40;;;4.70;99.90;;;;;;5009583;28;20460;-74
2022/12/01 07:08:57;;;;;;;34.73;30.97;;;4.70;99.90;;;;;;5009753;28;20445;-76
2022/12/01 07:11:25;;;;;;;39.40;32.33;;;4.80;99.90;;;;;;5010397;28;20446;-75
2022/12/01 07:13:55;;;;;;;35.40;31.60;;;4.80;99.90;;;;;;5010097;28;20445;-75
2022/12/01 07:16:22;;;;;;;32.90;29.33;;;4.80;99.90;;;;;;5010029;28;20445;-75
2022/12/01 07:18:49;;;;;;;33.07;27.90;;;4.80;99.90;;;;;;5010742;28;20446;-75
2022/12/01 07:21:16;;;;;;;34.47;30.63;;;4.80;99.90;;;;;;5010668;28;20495;-76
2022/12/01 07:23:43;;;;;;;32.23;28.90;;;4.90;99.90;;;;;;4994273;28;20447;-76
2022/12/01 07:26:12;;;;;;;32.13;28.77;;;4.90;99.90;;;;;;4993374;28;20453;-76
2022/12/01 07:28:40;;;;;;;33.10;29.70;;;4.80;99.90;;;;;;4993343;28;20466;-76
2022/12/01 07:31:09;;;;;;;33.63;28.87;;;4.80;99.90;;;;;;4993995;28;20454;-76
2022/12/01 07:33:36;;;;;;;33.47;29.70;;;4.80;99.90;;;;;;4993036;28;20940;-77
2022/12/01 07:36:04;;;;;;;35.37;31.53;;;4.80;99.90;;;;;;4991866;28;20476;-78
2022/12/01 07:38:32;;;;;;;37.03;31.60;;;4.80;99.90;;;;;;4994637;28;20457;-77
2022/12/01 07:41:02;;;;;;;32.50;28.93;;;4.80;99.90;;;;;;4993383;28;20490;-78
2022/12/01 07:43:30;;;;;;;35.13;29.40;;;5.00;99.90;;;;;;4990056;28;21001;-76
2022/12/01 07:46:05;;;;;;;37.83;31.17;;;4.90;99.90;;;;;;4990950;28;20449;-75
2022/12/01 07:48:31;;;;;;;32.10;28.70;;;5.00;99.90;;;;;;4990385;28;20448;-74
2022/12/01 07:50:58;;;;;;;33.37;28.50;;;5.10;99.90;;;;;;4990420;28;20577;-75
2022/12/01 07:53:25;;;;;;;32.97;28.63;;;5.20;99.90;;;;;;4993171;28;20460;-76
2022/12/01 07:55:52;;;;;;;32.93;27.70;;;5.20;99.90;;;;;;4993625;28;20441;-76
2022/12/01 07:58:18;;;;;;;32.03;28.13;;;5.20;99.90;;;;;;4996548;28;20461;-76
2022/12/01 08:00:45;;;;;;;29.90;26.67;;;5.30;99.90;;;;;;4996888;28;20582;-76
2022/12/01 08:03:14;;;;;;;32.17;27.23;;;5.30;99.90;;;;;;4995099;28;20482;-76
2022/12/01 08:05:41;;;;;;;32.03;28.63;;;5.40;99.90;;;;;;4994348;28;20468;-75
2022/12/01 08:08:07;;;;;;;31.90;28.00;;;5.40;99.90;;;;;;4994636;28;20464;-74
2022/12/01 08:10:35;;;;;;;32.00;27.73;;;5.40;99.90;;;;;;4991801;28;20461;-73
2022/12/01 08:13:02;;;;;;;29.10;26.30;;;5.50;99.90;;;;;;4993265;28;20654;-73
2022/12/01 08:15:28;;;;;;;30.57;27.33;;;5.60;99.90;;;;;;4993750;28;20551;-73
2022/12/01 08:17:55;;;;;;;33.67;28.17;;;5.60;99.90;;;;;;4993503;28;20456;-73
2022/12/01 08:20:23;;;;;;;30.40;27.37;;;5.60;99.90;;;;;;4994067;28;21094;-74
2022/12/01 08:22:50;;;;;;;32.03;27.63;;;5.70;99.90;;;;;;4992309;28;20979;-73
2022/12/01 08:25:17;;;;;;;43.23;29.10;;;5.80;99.90;;;;;;5010081;28;20756;-74
2022/12/01 08:27:44;;;;;;;31.67;28.10;;;5.70;99.90;;;;;;5015501;28;20456;-73
2022/12/01 08:30:11;;;;;;;30.30;27.13;;;5.70;99.90;;;;;;5015362;28;20560;-74
2022/12/01 08:32:38;;;;;;;30.90;26.70;;;5.70;99.90;;;;;;5014694;28;20510;-74
2022/12/01 08:35:06;;;;;;;35.57;29.97;;;5.60;99.90;;;;;;5015428;28;20469;-73
2022/12/01 08:37:34;;;;;;;30.47;26.67;;;5.70;99.90;;;;;;5014919;28;21022;-73
2022/12/01 08:40:01;;;;;;;30.90;26.83;;;5.80;99.90;;;;;;5014676;28;20453;-72
2022/12/01 08:42:27;;;;;;;30.17;27.27;;;5.80;99.90;;;;;;5014381;28;20956;-73
2022/12/01 08:44:54;;;;;;;30.40;27.33;;;5.70;99.90;;;;;;5014638;28;20747;-71
2022/12/01 08:47:21;;;;;;;31.93;28.63;;;5.70;99.90;;;;;;5014136;28;20453;-71
2022/12/01 08:49:48;;;;;;;28.70;25.60;;;5.70;99.90;;;;;;5014372;28;20466;-71
2022/12/01 08:52:14;;;;;;;29.13;25.80;;;5.60;99.90;;;;;;5010498;28;20484;-72
2022/12/01 08:54:43;;;;;;;30.43;27.20;;;5.70;99.90;;;;;;5011751;28;20450;-72
2022/12/01 08:57:09;;;;;;;31.90;27.90;;;5.70;99.90;;;;;;5014169;28;20460;-71
2022/12/01 08:59:36;;;;;;;33.63;27.70;;;5.60;99.90;;;;;;5012132;28;20832;-70
2022/12/01 09:02:03;;;;;;;30.47;27.27;;;5.50;99.90;;;;;;5014122;28;20488;-72
2022/12/01 09:04:30;;;;;;;31.87;27.80;;;5.50;99.90;;;;;;5012978;28;20799;-70
2022/12/01 09:06:57;;;;;;;34.33;28.70;;;5.60;99.90;;;;;;5012345;28;20945;-71
2022/12/01 09:09:27;;;;;;;28.20;25.33;;;5.50;99.90;;;;;;5011960;28;20463;-72
2022/12/01 09:11:56;;;;;;;30.20;27.10;;;5.60;99.90;;;;;;5013092;28;20451;-71
2022/12/01 09:14:23;;;;;;;33.33;29.10;;;5.50;99.90;;;;;;5013346;28;20809;-71
2022/12/01 09:16:50;;;;;;;34.50;28.33;;;5.60;99.90;;;;;;5012346;28;20453;-71
2022/12/01 09:19:18;;;;;;;31.13;27.10;;;5.60;99.90;;;;;;5012296;28;20536;-72
2022/12/01 09:21:46;;;;;;;30.67;26.40;;;5.80;99.90;;;;;;5011848;28;20490;-72
2022/12/01 09:24:14;;;;;;;29.00;25.80;;;5.80;99.90;;;;;;5014991;28;20468;-71
2022/12/01 09:26:42;;;;;;;31.77;27.90;;;6.00;99.90;;;;;;5014907;28;20850;-71
2022/12/01 09:29:13;;;;;;;29.37;26.27;;;6.00;99.90;;;;;;5014786;28;20536;-71
2022/12/01 09:31:40;;;;;;;29.23;26.20;;;6.00;99.90;;;;;;5000800;28;20448;-72
2022/12/01 09:34:10;;;;;;;27.87;25.33;;;5.60;99.90;;;;;;4993070;28;20459;-72
2022/12/01 09:36:38;;;;;;;30.30;27.40;;;5.70;99.90;;;;;;4993302;28;20453;-73
2022/12/01 09:39:05;;;;;;;29.37;26.27;;;5.80;99.90;;;;;;4992998;28;20450;-72
2022/12/01 09:41:36;;;;;;;30.90;26.77;;;5.90;99.90;;;;;;4992577;28;20496;-71
2022/12/01 09:44:12;;;;;;;27.40;24.60;;;5.80;99.90;;;;;;4993301;28;20457;-71
2022/12/01 09:46:44;;;;;;;28.37;25.40;;;6.00;99.90;;;;;;4993302;28;20461;-73
2022/12/01 09:49:16;;;;;;;29.53;24.40;;;5.90;99.90;;;;;;4993122;28;20500;-72
2022/12/01 09:51:43;;;;;;;27.40;24.47;;;6.00;99.90;;;;;;4991986;28;21016;-71
2022/12/01 09:54:13;;;;;;;27.70;24.57;;;6.00;99.90;;;;;;4992217;28;20469;-72
2022/12/01 09:56:44;;;;;;;27.53;24.60;;;6.20;99.90;;;;;;4992169;28;20454;-72
2022/12/01 09:59:18;;;;;;;30.07;26.70;;;6.30;99.90;;;;;;4992270;28;20537;-72
2022/12/01 10:01:49;;;;;;;27.73;24.87;;;6.40;99.90;;;;;;4991305;28;20500;-72
2022/12/01 10:04:20;;;;;;;28.63;25.80;;;6.30;99.90;;;;;;4991329;28;20623;-72
2022/12/01 10:06:53;;;;;;;27.93;25.13;;;6.10;99.90;;;;;;4991842;28;20870;-72
2022/12/01 10:09:25;;;;;;;27.50;24.53;;;6.20;99.90;;;;;;4991213;28;20446;-72
2022/12/01 10:11:58;;;;;;;28.20;25.27;;;6.20;99.90;;;;;;4991738;28;20961;-72
2022/12/01 10:14:33;;;;;;;27.33;23.63;;;6.40;99.90;;;;;;4991880;28;20826;-72
2022/12/01 10:17:09;;;;;;;31.60;25.30;;;6.30;99.90;;;;;;4990737;28;20820;-72
2022/12/01 10:19:42;;;;;;;30.03;24.60;;;6.20;99.90;;;;;;4990910;28;20451;-72
2022/12/01 10:22:22;;;;;;;29.60;25.63;;;6.30;99.90;;;;;;4991012;28;20838;-71
2022/12/01 10:24:55;;;;;;;30.27;27.00;;;6.20;99.90;;;;;;4991208;28;20884;-72
2022/12/01 10:27:42;;;;;;;29.97;26.77;;;6.30;99.90;;;;;;4989703;28;20491;-73
2022/12/01 10:30:15;;;;;;;31.07;27.97;;;6.30;99.90;;;;;;4991137;28;20439;-73
2022/12/01 10:32:49;;;;;;;37.83;26.70;;;6.30;99.90;;;;;;4991132;28;20451;-71
2022/12/01 10:35:18;;;;;;;28.53;25.43;;;6.30;99.90;;;;;;4990900;28;20473;-72
2022/12/01 10:37:46;;;;;;;28.37;25.33;;;6.30;99.90;;;;;;4991564;28;20447;-72
2022/12/01 10:40:15;;;;;;;28.13;25.50;;;6.40;99.90;;;;;;4991294;28;20462;-73
2022/12/01 10:42:44;;;;;;;26.37;23.57;;;6.60;99.90;;;;;;4990390;28;20490;-70
2022/12/01 10:45:18;;;;;;;32.53;24.33;;;6.50;99.90;;;;;;4990756;28;20443;-70
2022/12/01 10:48:09;;;;;;;27.20;24.53;;;6.50;99.90;;;;;;4990843;28;20504;-73
2022/12/01 10:50:36;;;;;;;28.90;25.83;;;6.50;99.90;;;;;;4990850;28;20475;-73
2022/12/01 10:53:04;;;;;;;32.10;27.27;;;6.50;99.90;;;;;;4991149;28;20458;-72
2022/12/01 10:55:33;;;;;;;32.23;25.97;;;6.50;99.90;;;;;;4990960;28;20457;-72
2022/12/01 10:58:03;;;;;;;28.27;25.23;;;6.40;99.90;;;;;;4990655;28;20541;-73
2022/12/01 11:00:36;;;;;;;28.03;25.00;;;6.40;99.90;;;;;;4990528;28;20442;-71
2022/12/01 11:03:04;;;;;;;34.97;27.20;;;6.40;99.90;;;;;;4991232;28;20974;-72
2022/12/01 11:05:41;;;;;;;29.53;26.43;;;6.20;99.90;;;;;;4991712;28;21312;-72
2022/12/01 11:08:22;;;;;;;27.57;24.57;;;6.20;99.90;;;;;;4996039;28;20786;-72
2022/12/01 11:10:50;;;;;;;30.23;27.10;;;6.20;99.90;;;;;;4991568;28;20454;-71
2022/12/01 11:13:22;;;;;;;30.03;24.93;;;6.30;99.90;;;;;;4991652;28;20759;-72
2022/12/01 11:15:53;;;;;;;27.77;23.87;;;6.30;99.90;;;;;;4991706;28;20477;-71
2022/12/01 11:18:28;;;;;;;26.50;23.80;;;6.40;99.90;;;;;;4991609;28;20442;-71
2022/12/01 11:21:09;;;;;;;26.50;23.33;;;6.50;99.90;;;;;;4990878;28;20478;-72
2022/12/01 11:23:37;;;;;;;27.67;24.90;;;6.60;99.90;;;;;;4990933;28;20454;-72
2022/12/01 11:26:14;;;;;;;28.50;25.40;;;6.60;99.90;;;;;;4990259;28;20455;-71
2022/12/01 11:28:51;;;;;;;26.63;23.77;;;6.60;99.90;;;;;;4990577;28;20964;-72
2022/12/01 11:31:21;;;;;;;27.43;24.37;;;6.60;99.90;;;;;;4993591;28;20446;-71
2022/12/01 11:33:50;;;;;;;29.20;26.13;;;6.60;99.90;;;;;;4994261;28;20446;-71
2022/12/01 11:36:28;;;;;;;26.70;23.93;;;6.60;99.90;;;;;;4994369;28;20462;-73
2022/12/01 11:38:57;;;;;;;28.63;25.63;;;6.70;99.90;;;;;;4994649;28;20454;-73
2022/12/01 11:41:29;;;;;;;29.40;25.40;;;6.90;99.90;;;;;;4992647;28;20493;-72
2022/12/01 11:43:56;;;;;;;27.20;24.37;;;6.90;99.90;;;;;;4993706;28;20461;-72
2022/12/01 11:46:32;;;;;;;25.20;22.70;;;7.00;99.90;;;;;;4994153;28;20454;-72
2022/12/01 11:49:00;;;;;;;30.87;27.60;;;6.90;99.90;;;;;;4991730;28;20982;-71
2022/12/01 11:51:31;;;;;;;27.80;24.90;;;6.90;99.90;;;;;;4993038;28;20478;-73
2022/12/01 11:54:12;;;;;;;27.17;24.07;;;6.90;99.90;;;;;;4993359;28;20557;-73
2022/12/01 11:56:39;;;;;;;27.97;25.00;;;7.00;99.90;;;;;;4993577;28;20457;-71
2022/12/01 11:59:10;;;;;;;25.17;22.67;;;6.80;99.90;;;;;;4993719;28;20443;-71
2022/12/01 12:01:50;;;;;;;30.10;26.67;;;6.80;99.90;;;;;;4993804;28;20513;-73
2022/12/01 12:04:27;;;;;;;25.67;23.17;;;6.80;99.90;;;;;;4993277;28;20450;-73
2022/12/01 12:07:01;;;;;;;25.77;22.63;;;6.90;99.90;;;;;;4994360;28;20446;-73
2022/12/01 12:09:45;;;;;;;28.07;25.20;;;6.90;99.90;;;;;;4993846;28;20451;-72
2022/12/01 12:12:23;;;;;;;25.87;23.20;;;7.00;99.90;;;;;;4993678;28;20529;-73
2022/12/01 12:15:01;;;;;;;26.50;23.33;;;7.00;99.90;;;;;;4993304;28;20486;-73
2022/12/01 12:17:46;;;;;;;27.30;24.60;;;7.00;99.90;;;;;;4993250;28;20492;-72
2022/12/01 12:20:35;;;;;;;26.17;23.47;;;7.00;99.90;;;;;;4992808;28;20778;-72
2022/12/01 12:23:40;;;;;;;24.50;22.00;;;7.00;99.90;;;;;;4993528;28;20483;-72
2022/12/01 12:26:16;;;;;;;27.37;24.50;;;7.00;99.90;;;;;;4993879;28;20447;-71
2022/12/01 12:28:56;;;;;;;26.77;24.00;;;6.90;99.90;;;;;;4993744;28;20457;-71
2022/12/01 12:31:34;;;;;;;26.70;23.90;;;6.90;99.90;;;;;;4994387;28;20446;-73
2022/12/01 12:34:21;;;;;;;26.03;23.33;;;6.90;99.90;;;;;;4992756;28;20450;-72
2022/12/01 12:36:59;;;;;;;25.47;22.87;;;6.80;99.90;;;;;;4990392;28;20984;-71
2022/12/01 12:39:48;;;;;;;26.53;23.77;;;6.90;99.90;;;;;;4992241;28;20770;-72
2022/12/01 12:42:23;;;;;;;25.50;22.67;;;7.00;99.90;;;;;;4991476;28;20482;-72
2022/12/01 12:44:56;;;;;;;32.10;24.23;;;7.30;99.90;;;;;;4993951;28;20451;-71
2022/12/01 12:47:41;;;;;;;28.03;24.07;;;7.50;99.90;;;;;;4993821;28;20880;-72
2022/12/01 12:50:20;;;;;;;24.73;22.13;;;7.60;99.90;;;;;;4990987;28;20557;-71
2022/12/01 12:52:51;;;;;;;31.00;26.80;;;7.30;99.90;;;;;;4992946;28;20824;-73
2022/12/01 12:55:22;;;;;;;27.27;24.33;;;7.30;99.90;;;;;;4992389;28;21000;-70
2022/12/01 12:57:53;;;;;;;27.27;24.47;;;7.20;99.90;;;;;;4992981;28;20442;-71